sensor_id;sensor_type;location;lat;lon;timestamp;temperature;humidity
54202;DHT22;40108;53.152;5.844;2023-04-03T00:01:30;2.30;81.90
54202;DHT22;40108;53.152;5.844;2023-04-03T00:03:59;2.20;82.00
54202;DHT22;40108;53.152;5.844;2023-04-03T00:06:25;2.20;82.00
54202;DHT22;40108;53.152;5.844;2023-04-03T00:08:51;2.20;82.10
54202;DHT22;40108;53.152;5.844;2023-04-03T00:11:18;2.20;82.20
54202;DHT22;40108;53.152;5.844;2023-04-03T00:13:45;2.10;82.40
54202;DHT22;40108;53.152;5.844;2023-04-03T00:16:11;2.10;82.50
54202;DHT22;40108;53.152;5.844;2023-04-03T00:18:38;2.10;82.60
54202;DHT22;40108;53.152;5.844;2023-04-03T00:21:05;2.10;82.60
54202;DHT22;40108;53.152;5.844;2023-04-03T00:23:31;2.10;82.60
54202;DHT22;40108;53.152;5.844;2023-04-03T00:25:57;2.10;82.60
54202;DHT22;40108;53.152;5.844;2023-04-03T00:28:23;2.10;82.70
54202;DHT22;40108;53.152;5.844;2023-04-03T00:30:50;2.00;82.80
54202;DHT22;40108;53.152;5.844;2023-04-03T00:33:16;2.00;82.90
54202;DHT22;40108;53.152;5.844;2023-04-03T00:35:41;2.00;83.10
54202;DHT22;40108;53.152;5.844;2023-04-03T00:38:07;1.90;83.40
54202;DHT22;40108;53.152;5.844;2023-04-03T00:40:39;1.90;83.50
54202;DHT22;40108;53.152;5.844;2023-04-03T00:43:19;1.80;83.60
54202;DHT22;40108;53.152;5.844;2023-04-03T00:45:48;1.80;83.90
54202;DHT22;40108;53.152;5.844;2023-04-03T00:48:18;1.80;84.40
54202;DHT22;40108;53.152;5.844;2023-04-03T00:50:46;1.70;84.70
54202;DHT22;40108;53.152;5.844;2023-04-03T00:53:22;1.70;85.00
54202;DHT22;40108;53.152;5.844;2023-04-03T00:55:49;1.70;85.20
54202;DHT22;40108;53.152;5.844;2023-04-03T00:58:18;1.70;85.20
54202;DHT22;40108;53.152;5.844;2023-04-03T01:00:48;1.70;85.10
54202;DHT22;40108;53.152;5.844;2023-04-03T01:03:17;1.60;85.20
54202;DHT22;40108;53.152;5.844;2023-04-03T01:05:42;1.60;85.20
54202;DHT22;40108;53.152;5.844;2023-04-03T01:08:08;1.60;85.40
54202;DHT22;40108;53.152;5.844;2023-04-03T01:10:34;1.60;85.40
54202;DHT22;40108;53.152;5.844;2023-04-03T01:13:00;1.50;85.50
54202;DHT22;40108;53.152;5.844;2023-04-03T01:15:27;1.50;85.50
54202;DHT22;40108;53.152;5.844;2023-04-03T01:17:58;1.50;85.50
54202;DHT22;40108;53.152;5.844;2023-04-03T01:25:35;1.40;85.70
54202;DHT22;40108;53.152;5.844;2023-04-03T01:28:02;1.30;85.80
54202;DHT22;40108;53.152;5.844;2023-04-03T01:30:33;1.30;85.60
54202;DHT22;40108;53.152;5.844;2023-04-03T01:32:59;1.20;85.70
54202;DHT22;40108;53.152;5.844;2023-04-03T01:35:25;1.20;85.90
54202;DHT22;40108;53.152;5.844;2023-04-03T01:37:51;1.20;86.30
54202;DHT22;40108;53.152;5.844;2023-04-03T01:40:17;1.20;86.50
54202;DHT22;40108;53.152;5.844;2023-04-03T01:42:42;1.20;86.80
54202;DHT22;40108;53.152;5.844;2023-04-03T01:45:08;1.20;87.00
54202;DHT22;40108;53.152;5.844;2023-04-03T01:47:34;1.20;87.00
54202;DHT22;40108;53.152;5.844;2023-04-03T01:50:00;1.20;86.80
54202;DHT22;40108;53.152;5.844;2023-04-03T01:52:25;1.20;86.50
54202;DHT22;40108;53.152;5.844;2023-04-03T01:54:51;1.20;86.00
54202;DHT22;40108;53.152;5.844;2023-04-03T01:57:17;1.10;85.80
54202;DHT22;40108;53.152;5.844;2023-04-03T01:59:43;1.20;85.50
54202;DHT22;40108;53.152;5.844;2023-04-03T02:02:08;1.10;85.20
54202;DHT22;40108;53.152;5.844;2023-04-03T02:04:34;1.10;85.00
54202;DHT22;40108;53.152;5.844;2023-04-03T02:07:00;1.00;85.00
54202;DHT22;40108;53.152;5.844;2023-04-03T02:09:26;1.00;84.70
54202;DHT22;40108;53.152;5.844;2023-04-03T02:11:52;1.10;84.60
54202;DHT22;40108;53.152;5.844;2023-04-03T02:14:21;1.00;84.50
54202;DHT22;40108;53.152;5.844;2023-04-03T02:16:49;1.00;84.40
54202;DHT22;40108;53.152;5.844;2023-04-03T02:19:15;1.00;84.30
54202;DHT22;40108;53.152;5.844;2023-04-03T02:21:41;1.00;84.20
54202;DHT22;40108;53.152;5.844;2023-04-03T02:24:07;1.00;84.20
54202;DHT22;40108;53.152;5.844;2023-04-03T02:26:33;1.00;84.20
54202;DHT22;40108;53.152;5.844;2023-04-03T02:28:58;1.00;84.20
54202;DHT22;40108;53.152;5.844;2023-04-03T02:31:24;1.00;84.20
54202;DHT22;40108;53.152;5.844;2023-04-03T02:33:50;1.00;84.30
54202;DHT22;40108;53.152;5.844;2023-04-03T02:36:16;1.00;84.30
54202;DHT22;40108;53.152;5.844;2023-04-03T02:38:42;1.00;84.30
54202;DHT22;40108;53.152;5.844;2023-04-03T02:41:10;1.00;84.30
54202;DHT22;40108;53.152;5.844;2023-04-03T02:43:36;1.00;84.20
54202;DHT22;40108;53.152;5.844;2023-04-03T02:46:03;1.00;84.30
54202;DHT22;40108;53.152;5.844;2023-04-03T02:48:29;1.00;84.30
54202;DHT22;40108;53.152;5.844;2023-04-03T02:50:55;1.00;84.40
54202;DHT22;40108;53.152;5.844;2023-04-03T02:53:20;0.90;84.60
54202;DHT22;40108;53.152;5.844;2023-04-03T02:55:47;0.90;84.60
54202;DHT22;40108;53.152;5.844;2023-04-03T02:58:12;0.90;84.70
54202;DHT22;40108;53.152;5.844;2023-04-03T03:00:38;0.80;84.80
54202;DHT22;40108;53.152;5.844;2023-04-03T03:03:04;0.80;84.90
54202;DHT22;40108;53.152;5.844;2023-04-03T03:05:30;0.80;85.00
54202;DHT22;40108;53.152;5.844;2023-04-03T03:07:56;0.70;85.10
54202;DHT22;40108;53.152;5.844;2023-04-03T03:10:22;0.70;85.30
54202;DHT22;40108;53.152;5.844;2023-04-03T03:12:48;0.70;85.30
54202;DHT22;40108;53.152;5.844;2023-04-03T03:15:14;0.70;85.40
54202;DHT22;40108;53.152;5.844;2023-04-03T03:17:42;0.60;85.60
54202;DHT22;40108;53.152;5.844;2023-04-03T03:20:09;0.70;85.70
54202;DHT22;40108;53.152;5.844;2023-04-03T03:22:35;0.70;85.60
54202;DHT22;40108;53.152;5.844;2023-04-03T03:25:02;0.70;85.70
54202;DHT22;40108;53.152;5.844;2023-04-03T03:27:28;0.70;85.60
54202;DHT22;40108;53.152;5.844;2023-04-03T03:29:54;0.70;85.70
54202;DHT22;40108;53.152;5.844;2023-04-03T03:32:19;0.60;85.70
54202;DHT22;40108;53.152;5.844;2023-04-03T03:34:45;0.60;85.70
54202;DHT22;40108;53.152;5.844;2023-04-03T03:37:11;0.60;85.80
54202;DHT22;40108;53.152;5.844;2023-04-03T03:39:37;0.60;85.90
54202;DHT22;40108;53.152;5.844;2023-04-03T03:42:02;0.50;86.00
54202;DHT22;40108;53.152;5.844;2023-04-03T03:44:29;0.50;86.10
54202;DHT22;40108;53.152;5.844;2023-04-03T03:46:55;0.50;86.10
54202;DHT22;40108;53.152;5.844;2023-04-03T03:49:21;0.50;86.20
54202;DHT22;40108;53.152;5.844;2023-04-03T03:51:47;0.40;86.30
54202;DHT22;40108;53.152;5.844;2023-04-03T03:54:13;0.40;86.40
54202;DHT22;40108;53.152;5.844;2023-04-03T03:56:39;0.40;86.40
54202;DHT22;40108;53.152;5.844;2023-04-03T03:59:05;0.30;86.50
54202;DHT22;40108;53.152;5.844;2023-04-03T04:01:32;0.30;86.50
54202;DHT22;40108;53.152;5.844;2023-04-03T04:03:57;0.30;86.60
54202;DHT22;40108;53.152;5.844;2023-04-03T04:06:23;0.30;86.70
54202;DHT22;40108;53.152;5.844;2023-04-03T04:08:49;0.20;86.80
54202;DHT22;40108;53.152;5.844;2023-04-03T04:11:15;0.20;86.80
54202;DHT22;40108;53.152;5.844;2023-04-03T04:13:41;0.20;86.90
54202;DHT22;40108;53.152;5.844;2023-04-03T04:16:07;0.20;86.90
54202;DHT22;40108;53.152;5.844;2023-04-03T04:18:33;0.20;87.00
54202;DHT22;40108;53.152;5.844;2023-04-03T04:20:59;0.20;87.00
54202;DHT22;40108;53.152;5.844;2023-04-03T04:23:25;0.20;87.10
54202;DHT22;40108;53.152;5.844;2023-04-03T04:25:51;0.20;87.20
54202;DHT22;40108;53.152;5.844;2023-04-03T04:28:17;0.10;87.20
54202;DHT22;40108;53.152;5.844;2023-04-03T04:30:43;0.10;87.30
54202;DHT22;40108;53.152;5.844;2023-04-03T04:33:09;0.10;87.40
54202;DHT22;40108;53.152;5.844;2023-04-03T04:35:35;0.10;87.40
54202;DHT22;40108;53.152;5.844;2023-04-03T04:38:01;0.10;87.50
54202;DHT22;40108;53.152;5.844;2023-04-03T04:40:28;0.10;87.60
54202;DHT22;40108;53.152;5.844;2023-04-03T04:42:53;0.10;87.60
54202;DHT22;40108;53.152;5.844;2023-04-03T04:45:20;0.00;87.60
54202;DHT22;40108;53.152;5.844;2023-04-03T04:47:45;0.10;87.60
54202;DHT22;40108;53.152;5.844;2023-04-03T04:50:11;0.10;87.70
54202;DHT22;40108;53.152;5.844;2023-04-03T04:52:38;0.10;87.70
54202;DHT22;40108;53.152;5.844;2023-04-03T04:55:04;0.00;87.60
54202;DHT22;40108;53.152;5.844;2023-04-03T04:57:30;0.00;87.90
54202;DHT22;40108;53.152;5.844;2023-04-03T04:59:56;0.00;88.00
54202;DHT22;40108;53.152;5.844;2023-04-03T05:02:22;0.00;88.10
54202;DHT22;40108;53.152;5.844;2023-04-03T05:04:47;0.00;88.10
54202;DHT22;40108;53.152;5.844;2023-04-03T05:07:15;0.00;88.30
54202;DHT22;40108;53.152;5.844;2023-04-03T05:09:41;0.00;88.70
54202;DHT22;40108;53.152;5.844;2023-04-03T05:12:08;0.00;89.00
54202;DHT22;40108;53.152;5.844;2023-04-03T05:14:33;0.00;89.10
54202;DHT22;40108;53.152;5.844;2023-04-03T05:16:59;0.00;89.30
54202;DHT22;40108;53.152;5.844;2023-04-03T05:19:25;0.00;89.30
54202;DHT22;40108;53.152;5.844;2023-04-03T05:21:50;-3276.70;89.30
54202;DHT22;40108;53.152;5.844;2023-04-03T05:24:16;-3276.70;89.40
54202;DHT22;40108;53.152;5.844;2023-04-03T05:26:43;-3276.70;89.50
54202;DHT22;40108;53.152;5.844;2023-04-03T05:29:09;-3276.70;89.70
54202;DHT22;40108;53.152;5.844;2023-04-03T05:31:35;-3276.70;89.80
54202;DHT22;40108;53.152;5.844;2023-04-03T05:34:01;-3276.70;89.80
54202;DHT22;40108;53.152;5.844;2023-04-03T05:36:27;-3276.60;90.00
54202;DHT22;40108;53.152;5.844;2023-04-03T05:38:52;-3276.70;90.10
54202;DHT22;40108;53.152;5.844;2023-04-03T05:41:19;-3276.70;90.10
54202;DHT22;40108;53.152;5.844;2023-04-03T05:43:46;-3276.70;89.90
54202;DHT22;40108;53.152;5.844;2023-04-03T05:46:14;-3276.70;89.90
54202;DHT22;40108;53.152;5.844;2023-04-03T05:48:40;0.00;90.00
54202;DHT22;40108;53.152;5.844;2023-04-03T05:51:06;0.00;89.90
54202;DHT22;40108;53.152;5.844;2023-04-03T05:53:35;0.00;90.00
54202;DHT22;40108;53.152;5.844;2023-04-03T05:56:02;0.00;89.90
54202;DHT22;40108;53.152;5.844;2023-04-03T05:58:28;0.00;89.90
54202;DHT22;40108;53.152;5.844;2023-04-03T06:00:54;0.00;89.70
54202;DHT22;40108;53.152;5.844;2023-04-03T06:03:20;0.10;89.60
54202;DHT22;40108;53.152;5.844;2023-04-03T06:05:46;0.20;89.40
54202;DHT22;40108;53.152;5.844;2023-04-03T06:08:12;0.20;89.30
54202;DHT22;40108;53.152;5.844;2023-04-03T06:10:38;0.20;89.00
54202;DHT22;40108;53.152;5.844;2023-04-03T06:13:04;0.20;88.90
54202;DHT22;40108;53.152;5.844;2023-04-03T06:15:30;0.30;88.80
54202;DHT22;40108;53.152;5.844;2023-04-03T06:17:55;0.40;88.80
54202;DHT22;40108;53.152;5.844;2023-04-03T06:20:21;0.40;88.80
54202;DHT22;40108;53.152;5.844;2023-04-03T06:22:47;0.50;88.70
54202;DHT22;40108;53.152;5.844;2023-04-03T06:25:13;0.50;88.50
54202;DHT22;40108;53.152;5.844;2023-04-03T06:27:40;0.60;88.50
54202;DHT22;40108;53.152;5.844;2023-04-03T06:30:07;0.70;88.40
54202;DHT22;40108;53.152;5.844;2023-04-03T06:32:32;0.70;88.20
54202;DHT22;40108;53.152;5.844;2023-04-03T06:34:58;0.80;87.90
54202;DHT22;40108;53.152;5.844;2023-04-03T06:37:24;0.90;87.80
54202;DHT22;40108;53.152;5.844;2023-04-03T06:39:54;1.00;87.80
54202;DHT22;40108;53.152;5.844;2023-04-03T06:42:20;1.10;87.40
54202;DHT22;40108;53.152;5.844;2023-04-03T06:44:46;1.20;87.10
54202;DHT22;40108;53.152;5.844;2023-04-03T06:47:16;1.30;86.50
54202;DHT22;40108;53.152;5.844;2023-04-03T06:49:42;1.40;86.50
54202;DHT22;40108;53.152;5.844;2023-04-03T06:52:08;1.40;86.70
54202;DHT22;40108;53.152;5.844;2023-04-03T06:54:34;1.60;85.90
54202;DHT22;40108;53.152;5.844;2023-04-03T06:57:00;1.70;86.10
54202;DHT22;40108;53.152;5.844;2023-04-03T06:59:27;1.70;85.40
54202;DHT22;40108;53.152;5.844;2023-04-03T07:01:53;1.80;85.60
54202;DHT22;40108;53.152;5.844;2023-04-03T07:04:18;2.00;85.50
54202;DHT22;40108;53.152;5.844;2023-04-03T07:06:46;2.20;85.20
54202;DHT22;40108;53.152;5.844;2023-04-03T07:09:13;2.20;84.20
54202;DHT22;40108;53.152;5.844;2023-04-03T07:11:39;2.30;83.20
54202;DHT22;40108;53.152;5.844;2023-04-03T07:14:04;2.40;83.60
54202;DHT22;40108;53.152;5.844;2023-04-03T07:16:31;2.50;83.40
54202;DHT22;40108;53.152;5.844;2023-04-03T07:18:57;2.70;82.30
54202;DHT22;40108;53.152;5.844;2023-04-03T07:21:23;2.80;82.00
54202;DHT22;40108;53.152;5.844;2023-04-03T07:23:49;2.90;81.70
54202;DHT22;40108;53.152;5.844;2023-04-03T07:26:15;3.00;80.00
54202;DHT22;40108;53.152;5.844;2023-04-03T07:28:41;3.10;79.30
54202;DHT22;40108;53.152;5.844;2023-04-03T07:31:11;3.20;77.50
54202;DHT22;40108;53.152;5.844;2023-04-03T07:33:39;3.30;79.10
54202;DHT22;40108;53.152;5.844;2023-04-03T07:36:06;3.50;78.10
54202;DHT22;40108;53.152;5.844;2023-04-03T07:38:35;3.70;76.30
54202;DHT22;40108;53.152;5.844;2023-04-03T07:41:02;3.80;75.90
54202;DHT22;40108;53.152;5.844;2023-04-03T07:43:27;3.90;74.40
54202;DHT22;40108;53.152;5.844;2023-04-03T07:45:53;4.10;75.00
54202;DHT22;40108;53.152;5.844;2023-04-03T07:48:24;4.30;74.30
54202;DHT22;40108;53.152;5.844;2023-04-03T07:50:51;4.60;72.80
54202;DHT22;40108;53.152;5.844;2023-04-03T07:53:18;4.80;71.60
54202;DHT22;40108;53.152;5.844;2023-04-03T07:55:47;4.80;68.70
54202;DHT22;40108;53.152;5.844;2023-04-03T07:58:16;5.00;69.10
54202;DHT22;40108;53.152;5.844;2023-04-03T08:00:42;5.20;69.40
54202;DHT22;40108;53.152;5.844;2023-04-03T08:03:10;5.50;68.40
54202;DHT22;40108;53.152;5.844;2023-04-03T08:05:43;5.80;68.80
54202;DHT22;40108;53.152;5.844;2023-04-03T08:08:11;5.90;66.80
54202;DHT22;40108;53.152;5.844;2023-04-03T08:10:37;6.20;64.90
54202;DHT22;40108;53.152;5.844;2023-04-03T08:13:03;6.40;64.90
54202;DHT22;40108;53.152;5.844;2023-04-03T08:15:30;6.50;63.50
54202;DHT22;40108;53.152;5.844;2023-04-03T08:17:57;6.60;62.60
54202;DHT22;40108;53.152;5.844;2023-04-03T08:20:23;6.70;63.20
54202;DHT22;40108;53.152;5.844;2023-04-03T08:22:49;6.90;61.90
54202;DHT22;40108;53.152;5.844;2023-04-03T08:25:15;7.00;60.60
54202;DHT22;40108;53.152;5.844;2023-04-03T08:27:41;7.10;58.50
54202;DHT22;40108;53.152;5.844;2023-04-03T08:30:07;7.20;60.70
54202;DHT22;40108;53.152;5.844;2023-04-03T08:32:34;7.20;59.00
54202;DHT22;40108;53.152;5.844;2023-04-03T08:35:01;7.50;59.40
54202;DHT22;40108;53.152;5.844;2023-04-03T08:37:27;7.50;59.60
54202;DHT22;40108;53.152;5.844;2023-04-03T08:39:53;7.70;57.30
54202;DHT22;40108;53.152;5.844;2023-04-03T08:45:13;8.20;55.30
54202;DHT22;40108;53.152;5.844;2023-04-03T08:48:00;8.20;54.80
54202;DHT22;40108;53.152;5.844;2023-04-03T08:50:36;8.20;55.00
54202;DHT22;40108;53.152;5.844;2023-04-03T08:53:03;8.30;55.20
54202;DHT22;40108;53.152;5.844;2023-04-03T08:55:41;8.70;56.20
54202;DHT22;40108;53.152;5.844;2023-04-03T08:58:15;8.80;53.10
54202;DHT22;40108;53.152;5.844;2023-04-03T09:00:50;9.00;53.30
54202;DHT22;40108;53.152;5.844;2023-04-03T09:03:21;9.20;51.30
54202;DHT22;40108;53.152;5.844;2023-04-03T09:06:35;9.20;50.40
54202;DHT22;40108;53.152;5.844;2023-04-03T09:09:05;9.20;48.70
54202;DHT22;40108;53.152;5.844;2023-04-03T09:20:17;10.40;47.90
54202;DHT22;40108;53.152;5.844;2023-04-03T09:22:45;10.30;45.80
54202;DHT22;40108;53.152;5.844;2023-04-03T09:25:27;10.20;45.80
54202;DHT22;40108;53.152;5.844;2023-04-03T09:27:54;10.60;45.90
54202;DHT22;40108;53.152;5.844;2023-04-03T09:30:25;10.40;44.90
54202;DHT22;40108;53.152;5.844;2023-04-03T09:32:53;10.20;44.90
54202;DHT22;40108;53.152;5.844;2023-04-03T09:37:50;10.40;45.50
54202;DHT22;40108;53.152;5.844;2023-04-03T09:40:32;10.50;44.90
54202;DHT22;40108;53.152;5.844;2023-04-03T09:43:04;10.30;43.40
54202;DHT22;40108;53.152;5.844;2023-04-03T09:45:46;10.60;42.90
54202;DHT22;40108;53.152;5.844;2023-04-03T09:53:41;10.90;41.30
54202;DHT22;40108;53.152;5.844;2023-04-03T09:58:44;11.40;42.70
54202;DHT22;40108;53.152;5.844;2023-04-03T10:01:30;11.60;42.70
54202;DHT22;40108;53.152;5.844;2023-04-03T10:04:15;11.70;40.80
54202;DHT22;40108;53.152;5.844;2023-04-03T10:06:47;11.40;40.10
54202;DHT22;40108;53.152;5.844;2023-04-03T10:09:22;11.60;43.00
54202;DHT22;40108;53.152;5.844;2023-04-03T10:12:09;11.70;40.10
54202;DHT22;40108;53.152;5.844;2023-04-03T10:14:58;11.80;40.00
54202;DHT22;40108;53.152;5.844;2023-04-03T10:17:30;11.90;38.80
54202;DHT22;40108;53.152;5.844;2023-04-03T10:23:02;11.90;38.10
54202;DHT22;40108;53.152;5.844;2023-04-03T10:31:19;11.60;36.00
54202;DHT22;40108;53.152;5.844;2023-04-03T10:34:20;11.60;37.40
54202;DHT22;40108;53.152;5.844;2023-04-03T10:39:30;11.80;37.10
54202;DHT22;40108;53.152;5.844;2023-04-03T10:42:15;11.80;36.20
54202;DHT22;40108;53.152;5.844;2023-04-03T10:48:06;11.50;36.20
54202;DHT22;40108;53.152;5.844;2023-04-03T10:50:43;11.40;37.00
54202;DHT22;40108;53.152;5.844;2023-04-03T10:55:57;11.50;37.10
54202;DHT22;40108;53.152;5.844;2023-04-03T10:58:34;11.50;36.90
54202;DHT22;40108;53.152;5.844;2023-04-03T11:01:07;11.70;38.90
54202;DHT22;40108;53.152;5.844;2023-04-03T11:03:49;11.70;37.30
54202;DHT22;40108;53.152;5.844;2023-04-03T11:06:18;11.50;36.20
54202;DHT22;40108;53.152;5.844;2023-04-03T11:08:56;11.30;37.40
54202;DHT22;40108;53.152;5.844;2023-04-03T11:11:27;11.40;36.80
54202;DHT22;40108;53.152;5.844;2023-04-03T11:13:55;11.20;35.70
54202;DHT22;40108;53.152;5.844;2023-04-03T11:16:27;11.20;38.60
54202;DHT22;40108;53.152;5.844;2023-04-03T11:19:04;11.30;36.50
54202;DHT22;40108;53.152;5.844;2023-04-03T11:24:03;10.90;34.80
54202;DHT22;40108;53.152;5.844;2023-04-03T11:26:38;10.90;37.00
54202;DHT22;40108;53.152;5.844;2023-04-03T11:29:09;11.10;36.70
54202;DHT22;40108;53.152;5.844;2023-04-03T11:34:44;11.20;36.00
54202;DHT22;40108;53.152;5.844;2023-04-03T11:42:52;11.40;38.00
54202;DHT22;40108;53.152;5.844;2023-04-03T11:46:02;11.20;35.20
54202;DHT22;40108;53.152;5.844;2023-04-03T11:53:46;10.80;37.30
54202;DHT22;40108;53.152;5.844;2023-04-03T12:01:56;10.70;36.80
54202;DHT22;40108;53.152;5.844;2023-04-03T12:04:25;10.20;36.90
54202;DHT22;40108;53.152;5.844;2023-04-03T12:07:12;10.20;38.40
54202;DHT22;40108;53.152;5.844;2023-04-03T12:14:53;9.90;37.20
54202;DHT22;40108;53.152;5.844;2023-04-03T12:17:23;9.90;36.80
54202;DHT22;40108;53.152;5.844;2023-04-03T12:19:50;9.90;36.80
54202;DHT22;40108;53.152;5.844;2023-04-03T12:22:18;9.80;36.80
54202;DHT22;40108;53.152;5.844;2023-04-03T12:24:49;10.00;39.60
54202;DHT22;40108;53.152;5.844;2023-04-03T12:35:38;10.20;38.10
54202;DHT22;40108;53.152;5.844;2023-04-03T12:38:32;10.20;36.80
54202;DHT22;40108;53.152;5.844;2023-04-03T12:41:30;10.10;36.40
54202;DHT22;40108;53.152;5.844;2023-04-03T12:44:26;10.10;38.80
54202;DHT22;40108;53.152;5.844;2023-04-03T12:46:53;10.20;37.80
54202;DHT22;40108;53.152;5.844;2023-04-03T12:49:42;10.20;36.40
54202;DHT22;40108;53.152;5.844;2023-04-03T12:52:38;10.20;37.50
54202;DHT22;40108;53.152;5.844;2023-04-03T12:55:24;10.10;38.00
54202;DHT22;40108;53.152;5.844;2023-04-03T12:57:50;10.10;40.30
54202;DHT22;40108;53.152;5.844;2023-04-03T13:02:46;9.80;39.70
54202;DHT22;40108;53.152;5.844;2023-04-03T13:05:18;9.90;39.90
54202;DHT22;40108;53.152;5.844;2023-04-03T13:07:49;9.80;39.30
54202;DHT22;40108;53.152;5.844;2023-04-03T13:10:18;9.70;40.40
54202;DHT22;40108;53.152;5.844;2023-04-03T13:12:58;9.50;39.10
54202;DHT22;40108;53.152;5.844;2023-04-03T13:15:45;9.40;39.60
54202;DHT22;40108;53.152;5.844;2023-04-03T13:18:23;9.20;39.00
54202;DHT22;40108;53.152;5.844;2023-04-03T13:20:50;9.20;39.40
54202;DHT22;40108;53.152;5.844;2023-04-03T13:23:17;9.20;39.50
54202;DHT22;40108;53.152;5.844;2023-04-03T13:25:44;9.20;41.80
54202;DHT22;40108;53.152;5.844;2023-04-03T13:28:14;9.20;39.80
54202;DHT22;40108;53.152;5.844;2023-04-03T13:30:41;9.20;40.70
54202;DHT22;40108;53.152;5.844;2023-04-03T13:33:22;9.20;40.10
54202;DHT22;40108;53.152;5.844;2023-04-03T13:36:00;9.20;41.50
54202;DHT22;40108;53.152;5.844;2023-04-03T13:38:29;9.20;40.20
54202;DHT22;40108;53.152;5.844;2023-04-03T13:41:03;9.20;40.70
54202;DHT22;40108;53.152;5.844;2023-04-03T13:43:33;9.20;42.00
54202;DHT22;40108;53.152;5.844;2023-04-03T13:46:21;9.20;40.70
54202;DHT22;40108;53.152;5.844;2023-04-03T13:48:50;9.20;41.60
54202;DHT22;40108;53.152;5.844;2023-04-03T13:53:52;9.20;42.80
54202;DHT22;40108;53.152;5.844;2023-04-03T13:56:32;9.30;43.50
54202;DHT22;40108;53.152;5.844;2023-04-03T13:59:22;9.40;43.40
54202;DHT22;40108;53.152;5.844;2023-04-03T14:02:17;9.30;41.50
54202;DHT22;40108;53.152;5.844;2023-04-03T14:07:10;9.30;42.00
54202;DHT22;40108;53.152;5.844;2023-04-03T14:09:36;9.30;41.60
54202;DHT22;40108;53.152;5.844;2023-04-03T14:12:07;9.30;43.30
54202;DHT22;40108;53.152;5.844;2023-04-03T14:14:35;9.40;42.00
54202;DHT22;40108;53.152;5.844;2023-04-03T14:17:17;9.20;40.60
54202;DHT22;40108;53.152;5.844;2023-04-03T14:19:43;9.20;42.60
54202;DHT22;40108;53.152;5.844;2023-04-03T14:22:30;9.10;41.60
54202;DHT22;40108;53.152;5.844;2023-04-03T14:24:57;9.10;41.50
54202;DHT22;40108;53.152;5.844;2023-04-03T14:27:28;9.10;42.20
54202;DHT22;40108;53.152;5.844;2023-04-03T14:29:57;9.10;43.10
54202;DHT22;40108;53.152;5.844;2023-04-03T14:32:24;9.10;42.40
54202;DHT22;40108;53.152;5.844;2023-04-03T14:34:50;9.20;43.60
54202;DHT22;40108;53.152;5.844;2023-04-03T14:37:19;9.20;44.20
54202;DHT22;40108;53.152;5.844;2023-04-03T14:39:46;9.20;44.90
54202;DHT22;40108;53.152;5.844;2023-04-03T14:42:14;9.20;44.80
54202;DHT22;40108;53.152;5.844;2023-04-03T14:44:40;9.20;44.30
54202;DHT22;40108;53.152;5.844;2023-04-03T14:47:12;9.10;44.30
54202;DHT22;40108;53.152;5.844;2023-04-03T14:49:39;9.10;44.10
54202;DHT22;40108;53.152;5.844;2023-04-03T14:52:05;9.00;41.80
54202;DHT22;40108;53.152;5.844;2023-04-03T14:54:31;8.90;41.00
54202;DHT22;40108;53.152;5.844;2023-04-03T14:56:59;8.90;42.50
54202;DHT22;40108;53.152;5.844;2023-04-03T14:59:25;8.90;43.00
54202;DHT22;40108;53.152;5.844;2023-04-03T15:01:52;8.90;42.30
54202;DHT22;40108;53.152;5.844;2023-04-03T15:04:19;8.90;43.70
54202;DHT22;40108;53.152;5.844;2023-04-03T15:06:46;8.90;43.40
54202;DHT22;40108;53.152;5.844;2023-04-03T15:09:20;8.90;44.50
54202;DHT22;40108;53.152;5.844;2023-04-03T15:11:47;8.90;45.10
54202;DHT22;40108;53.152;5.844;2023-04-03T15:14:13;8.80;41.70
54202;DHT22;40108;53.152;5.844;2023-04-03T15:16:39;8.80;42.70
54202;DHT22;40108;53.152;5.844;2023-04-03T15:19:05;8.80;44.40
54202;DHT22;40108;53.152;5.844;2023-04-03T15:21:30;8.80;45.40
54202;DHT22;40108;53.152;5.844;2023-04-03T15:23:56;8.70;43.90
54202;DHT22;40108;53.152;5.844;2023-04-03T15:26:22;8.70;47.70
54202;DHT22;40108;53.152;5.844;2023-04-03T15:28:48;8.70;50.60
54202;DHT22;40108;53.152;5.844;2023-04-03T15:31:14;8.70;50.40
54202;DHT22;40108;53.152;5.844;2023-04-03T15:33:39;8.70;50.30
54202;DHT22;40108;53.152;5.844;2023-04-03T15:36:06;8.60;49.90
54202;DHT22;40108;53.152;5.844;2023-04-03T15:38:32;8.60;50.50
54202;DHT22;40108;53.152;5.844;2023-04-03T15:40:58;8.60;51.50
54202;DHT22;40108;53.152;5.844;2023-04-03T15:43:23;8.60;51.10
54202;DHT22;40108;53.152;5.844;2023-04-03T15:45:49;8.60;51.70
54202;DHT22;40108;53.152;5.844;2023-04-03T15:48:16;8.50;52.60
54202;DHT22;40108;53.152;5.844;2023-04-03T15:50:42;8.50;53.80
54202;DHT22;40108;53.152;5.844;2023-04-03T15:53:09;8.50;51.90
54202;DHT22;40108;53.152;5.844;2023-04-03T15:55:36;8.40;52.50
54202;DHT22;40108;53.152;5.844;2023-04-03T15:58:03;8.40;53.50
54202;DHT22;40108;53.152;5.844;2023-04-03T16:00:30;8.30;54.10
54202;DHT22;40108;53.152;5.844;2023-04-03T16:03:00;8.20;54.50
54202;DHT22;40108;53.152;5.844;2023-04-03T16:05:29;8.20;55.10
54202;DHT22;40108;53.152;5.844;2023-04-03T16:07:55;8.20;55.20
54202;DHT22;40108;53.152;5.844;2023-04-03T16:10:22;8.20;55.40
54202;DHT22;40108;53.152;5.844;2023-04-03T16:12:48;8.20;55.20
54202;DHT22;40108;53.152;5.844;2023-04-03T16:15:14;8.20;55.10
54202;DHT22;40108;53.152;5.844;2023-04-03T16:17:40;8.20;54.40
54202;DHT22;40108;53.152;5.844;2023-04-03T16:20:07;8.10;53.60
54202;DHT22;40108;53.152;5.844;2023-04-03T16:22:34;8.00;53.30
54202;DHT22;40108;53.152;5.844;2023-04-03T16:24:59;7.90;51.70
54202;DHT22;40108;53.152;5.844;2023-04-03T16:27:25;7.90;53.90
54202;DHT22;40108;53.152;5.844;2023-04-03T16:29:56;7.80;53.60
54202;DHT22;40108;53.152;5.844;2023-04-03T16:32:22;7.80;54.60
54202;DHT22;40108;53.152;5.844;2023-04-03T16:34:49;7.80;54.40
54202;DHT22;40108;53.152;5.844;2023-04-03T16:37:15;7.70;54.30
54202;DHT22;40108;53.152;5.844;2023-04-03T16:39:41;7.70;55.00
54202;DHT22;40108;53.152;5.844;2023-04-03T16:42:07;7.60;55.10
54202;DHT22;40108;53.152;5.844;2023-04-03T16:44:34;7.60;55.50
54202;DHT22;40108;53.152;5.844;2023-04-03T16:47:00;7.50;55.60
54202;DHT22;40108;53.152;5.844;2023-04-03T16:49:26;7.50;55.90
54202;DHT22;40108;53.152;5.844;2023-04-03T16:51:55;7.50;57.00
54202;DHT22;40108;53.152;5.844;2023-04-03T16:54:21;7.40;56.80
54202;DHT22;40108;53.152;5.844;2023-04-03T16:56:46;7.40;56.80
54202;DHT22;40108;53.152;5.844;2023-04-03T16:59:12;7.40;57.60
54202;DHT22;40108;53.152;5.844;2023-04-03T17:01:38;7.30;58.30
54202;DHT22;40108;53.152;5.844;2023-04-03T17:04:05;7.30;59.50
54202;DHT22;40108;53.152;5.844;2023-04-03T17:06:31;7.20;59.60
54202;DHT22;40108;53.152;5.844;2023-04-03T17:08:56;7.20;60.10
54202;DHT22;40108;53.152;5.844;2023-04-03T17:11:22;7.20;60.80
54202;DHT22;40108;53.152;5.844;2023-04-03T17:13:48;7.20;60.80
54202;DHT22;40108;53.152;5.844;2023-04-03T17:16:15;7.10;61.30
54202;DHT22;40108;53.152;5.844;2023-04-03T17:18:41;7.00;60.60
54202;DHT22;40108;53.152;5.844;2023-04-03T17:21:07;7.00;60.50